Time;durP1;ratioP1;P1;durP2;ratioP2;P2;SDS_P1;SDS_P2;PMS_P1;PMS_P2;Temp;Humidity;BMP_temperature;BMP_pressure;BME280_temperature;BME280_humidity;BME280_pressure;Samples;Min_cycle;Max_cycle;Signal;HPM_P1;HPM_P2
2022/06/04 00:01:00;;;;;;;;;;;21.60;66.60;;;;;;5073852;28;19935;-77
2022/06/04 00:03:27;;;;;;;;;;;21.60;66.70;;;;;;5074439;28;20041;-76
2022/06/04 00:05:55;;;;;;;;;;;21.60;66.80;;;;;;5073427;28;20115;-75
2022/06/04 00:08:21;;;;;;;;;;;21.60;66.90;;;;;;5074043;28;19924;-77
2022/06/04 00:16:33;;;;;;;;;;;21.50;67.10;;;;;;5024160;28;19936;-75
2022/06/04 00:19:00;;;;;;;;;;;21.50;67.20;;;;;;5056095;28;19940;-78
2022/06/04 00:21:27;;;;;;;;;;;21.40;67.10;;;;;;5071933;28;19928;-77
2022/06/04 00:23:53;;;;;;;;;;;21.40;67.30;;;;;;5071733;28;19950;-75
2022/06/04 00:26:20;;;;;;;;;;;21.40;67.30;;;;;;5073222;28;19928;-75
2022/06/04 00:28:47;;;;;;;;;;;21.30;67.40;;;;;;5073672;28;19935;-78
2022/06/04 00:31:15;;;;;;;;;;;21.30;67.40;;;;;;5075746;28;19986;-75
2022/06/04 00:33:42;;;;;;;;;;;21.30;67.50;;;;;;5072230;28;20362;-75
2022/06/04 00:36:08;;;;;;;;;;;21.30;68.30;;;;;;5072190;28;19939;-75
2022/06/04 00:38:35;;;;;;;;;;;21.30;67.50;;;;;;5072947;28;19940;-74
2022/06/04 00:41:06;;;;;;;;;;;21.20;67.50;;;;;;5071803;28;19946;-74
2022/06/04 00:43:51;;;;;;;;;;;21.20;67.70;;;;;;5073840;28;20402;-74
2022/06/04 00:46:35;;;;;;;;;;;21.20;67.60;;;;;;5072191;28;19935;-75
2022/06/04 00:49:03;;;;;;;;;;;21.10;67.70;;;;;;5023902;28;19932;-74
2022/06/04 00:51:30;;;;;;;;;;;21.10;67.80;;;;;;5071421;28;20320;-77
2022/06/04 00:53:57;;;;;;;;;;;21.10;67.80;;;;;;5073855;28;19928;-77
2022/06/04 00:56:28;;;;;;;;;;;21.00;67.80;;;;;;5071539;28;19932;-75
2022/06/04 00:59:13;;;;;;;;;;;21.00;67.90;;;;;;5069809;28;19935;-74
2022/06/04 01:01:43;;;;;;;;;;;21.00;68.70;;;;;;5068871;28;21178;-74
2022/06/04 01:04:47;;;;;;;;;;;21.00;68.00;;;;;;5075327;28;19928;-73
2022/06/04 01:07:09;;;;;;;;;;;21.00;68.10;;;;;;5075596;28;19929;-74
2022/06/04 01:09:40;;;;;;;;;;;20.90;68.10;;;;;;5076600;28;19932;-74
2022/06/04 01:12:19;;;;;;;;;;;20.90;68.20;;;;;;5074111;28;19928;-74
2022/06/04 01:14:51;;;;;;;;;;;20.90;68.20;;;;;;5071320;28;19940;-74
2022/06/04 01:17:20;;;;;;;;;;;20.80;68.20;;;;;;5078146;28;19936;-75
2022/06/04 01:19:57;;;;;;;;;;;20.80;68.30;;;;;;5074263;28;19931;-74
2022/06/04 01:22:33;;;;;;;;;;;20.80;68.30;;;;;;5077630;28;20444;-75
2022/06/04 01:25:07;;;;;;;;;;;20.70;68.30;;;;;;5081472;28;19934;-77
2022/06/04 01:27:37;;;;;;;;;;;20.70;68.40;;;;;;5076902;28;19934;-74
2022/06/04 01:30:07;;;;;;;;;;;20.70;68.50;;;;;;5079500;28;20439;-74
2022/06/04 01:32:38;;;;;;;;;;;20.70;68.60;;;;;;5080265;28;20019;-74
2022/06/04 01:35:08;;;;;;;;;;;20.70;68.70;;;;;;5079417;28;19928;-75
2022/06/04 01:37:38;;;;;;;;;;;20.60;68.70;;;;;;5076541;28;20073;-74
2022/06/04 01:42:52;;;;;;;;;;;20.60;68.80;;;;;;5074679;28;19931;-75
2022/06/04 01:45:22;;;;;;;;;;;20.60;68.80;;;;;;5077529;28;19964;-74
2022/06/04 01:47:51;;;;;;;;;;;20.50;68.80;;;;;;5076471;28;19932;-74
2022/06/04 01:50:20;;;;;;;;;;;20.50;68.90;;;;;;5070479;28;19974;-74
2022/06/04 01:52:47;;;;;;;;;;;20.50;68.90;;;;;;5077542;28;20002;-77
2022/06/04 01:55:15;;;;;;;;;;;20.50;69.00;;;;;;5077208;28;19977;-77
2022/06/04 01:57:44;;;;;;;;;;;20.50;69.10;;;;;;5072482;28;19932;-74
2022/06/04 02:00:15;;;;;;;;;;;20.40;69.10;;;;;;5073654;28;20448;-73
2022/06/04 02:02:45;;;;;;;;;;;20.40;69.10;;;;;;5071550;28;19935;-74
2022/06/04 02:05:14;;;;;;;;;;;20.40;69.20;;;;;;5072931;28;20346;-74
2022/06/04 02:07:42;;;;;;;;;;;20.30;69.20;;;;;;5073160;28;19940;-76
2022/06/04 02:10:11;;;;;;;;;;;20.30;69.20;;;;;;5072778;28;19946;-74
2022/06/04 02:12:38;;;;;;;;;;;20.30;69.30;;;;;;5070421;28;19933;-74
2022/06/04 02:15:06;;;;;;;;;;;20.30;69.30;;;;;;5076646;28;19967;-74
2022/06/04 02:17:35;;;;;;;;;;;20.30;69.40;;;;;;5070250;28;19936;-74
2022/06/04 02:20:01;;;;;;;;;;;20.20;69.30;;;;;;5069683;28;19928;-74
2022/06/04 02:22:28;;;;;;;;;;;20.20;69.40;;;;;;5073968;28;19928;-77
2022/06/04 02:24:55;;;;;;;;;;;20.20;69.40;;;;;;5071664;28;19939;-74
2022/06/04 02:27:21;;;;;;;;;;;20.10;69.40;;;;;;5075630;28;19931;-76
2022/06/04 02:29:48;;;;;;;;;;;20.10;69.50;;;;;;5072757;28;19928;-74
2022/06/04 02:32:20;;;;;;;;;;;20.10;69.50;;;;;;5075780;28;19932;-76
2022/06/04 02:34:52;;;;;;;;;;;20.10;69.70;;;;;;5071163;28;19943;-75
2022/06/04 02:37:22;;;;;;;;;;;20.00;69.60;;;;;;5072818;28;19928;-74
2022/06/04 02:39:55;;;;;;;;;;;20.00;69.60;;;;;;5075635;28;19931;-75
2022/06/04 02:42:24;;;;;;;;;;;20.00;69.70;;;;;;5071906;28;19982;-76
2022/06/04 02:44:52;;;;;;;;;;;20.00;69.80;;;;;;5071694;28;19928;-76
2022/06/04 02:47:21;;;;;;;;;;;19.90;69.70;;;;;;5067993;28;19932;-73
2022/06/04 02:49:51;;;;;;;;;;;19.90;69.80;;;;;;5070547;28;20639;-74
2022/06/04 02:52:19;;;;;;;;;;;19.90;69.80;;;;;;5074150;28;19932;-76
2022/06/04 02:54:49;;;;;;;;;;;19.90;69.90;;;;;;5071465;28;19932;-74
2022/06/04 02:57:16;;;;;;;;;;;19.90;69.90;;;;;;5069813;28;20279;-76
2022/06/04 02:59:43;;;;;;;;;;;19.90;70.00;;;;;;5070468;28;20312;-76
2022/06/04 03:02:11;;;;;;;;;;;19.80;70.00;;;;;;5066666;28;20469;-74
2022/06/04 03:04:42;;;;;;;;;;;19.80;70.00;;;;;;5074084;28;19935;-75
2022/06/04 03:07:10;;;;;;;;;;;19.80;70.00;;;;;;5071537;28;19933;-74
2022/06/04 03:09:38;;;;;;;;;;;19.70;70.00;;;;;;5073339;28;19932;-75
2022/06/04 03:12:05;;;;;;;;;;;19.70;70.10;;;;;;5072500;28;21691;-74
2022/06/04 03:14:32;;;;;;;;;;;19.70;70.10;;;;;;5069021;28;19939;-74
2022/06/04 03:16:58;;;;;;;;;;;19.70;70.10;;;;;;5071115;28;19981;-77
2022/06/04 03:19:25;;;;;;;;;;;19.60;70.10;;;;;;5069319;28;19928;-75
2022/06/04 03:21:51;;;;;;;;;;;19.70;70.30;;;;;;5066796;28;19932;-75
2022/06/04 03:24:19;;;;;;;;;;;19.60;70.20;;;;;;5069741;28;19935;-76
2022/06/04 03:26:46;;;;;;;;;;;19.50;70.20;;;;;;5069759;28;19948;-75
2022/06/04 03:29:13;;;;;;;;;;;19.60;70.40;;;;;;5068088;28;19959;-75
2022/06/04 03:31:39;;;;;;;;;;;19.60;70.50;;;;;;5068988;28;20399;-75
2022/06/04 03:34:06;;;;;;;;;;;19.50;70.40;;;;;;5071851;28;19939;-76
2022/06/04 03:36:32;;;;;;;;;;;19.50;70.50;;;;;;5076642;28;19928;-76
2022/06/04 03:39:00;;;;;;;;;;;19.50;70.50;;;;;;5073250;28;20342;-70
2022/06/04 03:41:28;;;;;;;;;;;19.50;70.60;;;;;;5070944;28;19936;-68
2022/06/04 03:43:55;;;;;;;;;;;19.40;70.60;;;;;;5074022;28;19932;-67
2022/06/04 03:46:24;;;;;;;;;;;19.50;70.70;;;;;;5075550;28;19974;-67
2022/06/04 03:48:50;;;;;;;;;;;19.40;71.50;;;;;;5070195;28;20055;-70
2022/06/04 03:51:17;;;;;;;;;;;19.40;70.90;;;;;;5069721;28;19932;-70
2022/06/04 03:53:43;;;;;;;;;;;19.40;71.00;;;;;;5074387;28;19936;-65
2022/06/04 03:56:10;;;;;;;;;;;19.40;71.10;;;;;;5075853;28;19936;-69
2022/06/04 03:58:38;;;;;;;;;;;19.40;71.10;;;;;;5065955;28;19958;-68
2022/06/04 04:01:12;;;;;;;;;;;19.30;71.10;;;;;;5069091;28;19936;-68
2022/06/04 04:03:39;;;;;;;;;;;19.30;71.10;;;;;;5070790;28;20372;-69
2022/06/04 04:06:05;;;;;;;;;;;19.30;71.30;;;;;;5069877;28;19940;-68
2022/06/04 04:08:32;;;;;;;;;;;19.30;71.40;;;;;;5067033;28;19939;-70
2022/06/04 04:10:58;;;;;;;;;;;19.30;71.50;;;;;;5068392;28;19928;-73
2022/06/04 04:13:25;;;;;;;;;;;19.20;71.60;;;;;;5071826;28;19932;-69
2022/06/04 04:15:53;;;;;;;;;;;19.20;71.60;;;;;;5074674;28;19928;-69
2022/06/04 04:18:19;;;;;;;;;;;19.30;71.80;;;;;;5076656;28;19936;-66
2022/06/04 04:20:48;;;;;;;;;;;19.20;71.70;;;;;;5075049;28;19936;-68
2022/06/04 04:23:14;;;;;;;;;;;19.20;71.70;;;;;;5075086;28;19943;-68
2022/06/04 04:25:41;;;;;;;;;;;19.20;71.60;;;;;;5074888;28;19943;-67
2022/06/04 04:28:08;;;;;;;;;;;19.20;71.70;;;;;;5070305;28;19932;-71
2022/06/04 04:30:35;;;;;;;;;;;19.20;71.60;;;;;;5075047;28;19936;-66
2022/06/04 04:33:04;;;;;;;;;;;19.20;71.80;;;;;;5070072;28;19928;-70
2022/06/04 04:35:32;;;;;;;;;;;19.20;71.80;;;;;;5071237;28;19928;-72
2022/06/04 04:37:59;;;;;;;;;;;19.20;72.00;;;;;;5073329;28;19975;-68
2022/06/04 04:40:27;;;;;;;;;;;19.20;72.10;;;;;;5069481;28;19932;-67
2022/06/04 04:42:53;;;;;;;;;;;19.20;72.20;;;;;;5066298;28;19928;-68
2022/06/04 04:45:21;;;;;;;;;;;19.20;72.10;;;;;;5075390;28;20467;-69
2022/06/04 04:47:48;;;;;;;;;;;19.10;71.90;;;;;;5071524;28;19935;-71
2022/06/04 04:50:17;;;;;;;;;;;19.20;72.20;;;;;;5075911;28;19958;-68
2022/06/04 04:52:43;;;;;;;;;;;19.20;72.20;;;;;;5072828;28;19929;-66
2022/06/04 04:55:10;;;;;;;;;;;19.10;72.30;;;;;;5070171;28;19932;-67
2022/06/04 04:57:37;;;;;;;;;;;19.10;72.40;;;;;;5066548;28;19928;-68
2022/06/04 05:00:05;;;;;;;;;;;19.10;72.60;;;;;;5072661;28;20021;-64
2022/06/04 05:02:31;;;;;;;;;;;19.10;72.70;;;;;;5068947;28;19929;-69
2022/06/04 05:04:58;;;;;;;;;;;19.10;72.90;;;;;;5073636;28;20029;-67
2022/06/04 05:07:26;;;;;;;;;;;19.10;72.90;;;;;;5065532;28;20412;-65
2022/06/04 05:09:53;;;;;;;;;;;19.10;72.90;;;;;;5070957;28;20370;-68
2022/06/04 05:12:19;;;;;;;;;;;19.10;73.20;;;;;;5072792;28;20468;-66
2022/06/04 05:14:46;;;;;;;;;;;19.10;73.50;;;;;;5067154;28;19932;-68
2022/06/04 05:17:12;;;;;;;;;;;19.10;73.50;;;;;;5072935;28;19936;-69
2022/06/04 05:19:39;;;;;;;;;;;19.20;73.50;;;;;;5066451;28;19928;-67
2022/06/04 05:22:06;;;;;;;;;;;19.20;73.20;;;;;;5070389;28;19955;-67
2022/06/04 05:24:35;;;;;;;;;;;19.20;73.10;;;;;;5064711;28;19932;-67
2022/06/04 05:27:03;;;;;;;;;;;19.20;73.10;;;;;;5068471;28;19936;-64
2022/06/04 05:29:31;;;;;;;;;;;19.20;73.20;;;;;;5072606;28;19990;-69
2022/06/04 05:31:58;;;;;;;;;;;19.20;73.20;;;;;;5071321;28;20410;-68
2022/06/04 05:34:25;;;;;;;;;;;19.20;73.90;;;;;;5072645;28;19982;-64
2022/06/04 05:36:54;;;;;;;;;;;19.20;74.30;;;;;;5068854;28;19929;-71
2022/06/04 05:39:21;;;;;;;;;;;19.20;74.60;;;;;;5066511;28;19928;-64
2022/06/04 05:41:49;;;;;;;;;;;19.20;74.60;;;;;;5069909;28;19928;-69
2022/06/04 05:44:16;;;;;;;;;;;19.30;74.70;;;;;;5064554;28;19959;-67
2022/06/04 05:46:44;;;;;;;;;;;19.20;74.50;;;;;;5064123;28;20718;-66
2022/06/04 05:49:11;;;;;;;;;;;19.20;74.10;;;;;;5074373;28;19932;-65
2022/06/04 05:51:38;;;;;;;;;;;19.30;74.00;;;;;;5074689;28;19928;-69
2022/06/04 05:54:05;;;;;;;;;;;19.30;74.30;;;;;;5080033;28;19938;-67
2022/06/04 05:56:33;;;;;;;;;;;19.30;74.40;;;;;;5071196;28;20395;-67
2022/06/04 05:59:01;;;;;;;;;;;19.30;74.60;;;;;;5080554;28;19928;-70
2022/06/04 06:01:29;;;;;;;;;;;19.30;74.60;;;;;;5080860;28;19973;-66
2022/06/04 06:03:56;;;;;;;;;;;19.30;74.30;;;;;;5083062;28;19936;-71
2022/06/04 06:06:23;;;;;;;;;;;19.30;73.90;;;;;;5078230;28;19928;-66
2022/06/04 06:08:50;;;;;;;;;;;19.30;73.90;;;;;;5079991;28;20438;-67
2022/06/04 06:11:18;;;;;;;;;;;19.30;74.10;;;;;;5077326;28;19962;-65
2022/06/04 06:13:45;;;;;;;;;;;19.30;74.10;;;;;;5078453;28;19932;-65
2022/06/04 06:16:13;;;;;;;;;;;19.30;74.00;;;;;;5074931;28;20006;-63
2022/06/04 06:18:40;;;;;;;;;;;19.30;74.10;;;;;;5078844;28;19951;-68
2022/06/04 06:21:07;;;;;;;;;;;19.30;74.00;;;;;;5075268;28;19932;-66
2022/06/04 06:23:34;;;;;;;;;;;19.30;73.90;;;;;;5076788;28;19936;-65
2022/06/04 06:26:04;;;;;;;;;;;19.30;74.10;;;;;;5073937;28;20387;-72
2022/06/04 06:28:30;;;;;;;;;;;19.30;74.20;;;;;;5078542;28;19971;-72
2022/06/04 06:30:57;;;;;;;;;;;19.30;74.30;;;;;;5075863;28;19929;-71
2022/06/04 06:33:25;;;;;;;;;;;19.30;73.90;;;;;;5080547;28;19933;-69
2022/06/04 06:35:55;;;;;;;;;;;19.30;74.00;;;;;;5079247;28;19931;-69
2022/06/04 06:38:21;;;;;;;;;;;19.30;74.20;;;;;;5074057;28;19928;-70
2022/06/04 06:40:48;;;;;;;;;;;19.40;74.30;;;;;;5069096;28;19931;-68
2022/06/04 06:43:15;;;;;;;;;;;19.30;74.40;;;;;;5083326;28;19935;-66
2022/06/04 06:45:42;;;;;;;;;;;19.30;74.20;;;;;;5070344;28;19936;-64
2022/06/04 06:48:09;;;;;;;;;;;19.30;74.00;;;;;;5072929;28;20455;-69
2022/06/04 06:50:37;;;;;;;;;;;19.40;74.00;;;;;;5071151;28;20022;-69
2022/06/04 06:53:03;;;;;;;;;;;19.40;74.30;;;;;;5074016;28;20006;-66
2022/06/04 06:55:30;;;;;;;;;;;19.30;74.20;;;;;;5074344;28;19981;-67
2022/06/04 06:57:56;;;;;;;;;;;19.40;74.10;;;;;;5071876;28;19936;-70
2022/06/04 07:00:24;;;;;;;;;;;19.40;74.00;;;;;;5073489;28;19963;-70
2022/06/04 07:02:50;;;;;;;;;;;19.40;73.90;;;;;;5070622;28;19928;-68
2022/06/04 07:05:17;;;;;;;;;;;19.40;74.40;;;;;;5070478;28;19939;-68
2022/06/04 07:07:45;;;;;;;;;;;19.40;74.80;;;;;;5070785;28;19964;-72
2022/06/04 07:10:14;;;;;;;;;;;19.40;74.70;;;;;;5072184;28;19928;-65
2022/06/04 07:12:42;;;;;;;;;;;19.40;74.80;;;;;;5074162;28;19970;-68
2022/06/04 07:15:10;;;;;;;;;;;19.40;74.70;;;;;;5073392;28;19927;-69
2022/06/04 07:17:36;;;;;;;;;;;19.40;74.70;;;;;;5077680;28;19939;-71
2022/06/04 07:20:03;;;;;;;;;;;19.40;75.50;;;;;;5073852;28;19974;-69
2022/06/04 07:22:29;;;;;;;;;;;19.40;74.60;;;;;;5071076;28;19932;-69
2022/06/04 07:24:57;;;;;;;;;;;19.40;75.00;;;;;;5073573;28;20281;-71
2022/06/04 07:27:24;;;;;;;;;;;19.40;75.10;;;;;;5072284;28;19947;-70
2022/06/04 07:29:50;;;;;;;;;;;19.40;75.10;;;;;;5073809;28;19928;-69
2022/06/04 07:32:17;;;;;;;;;;;19.50;75.00;;;;;;5071950;28;20659;-68
2022/06/04 07:34:44;;;;;;;;;;;19.50;75.20;;;;;;5074411;28;19928;-67
2022/06/04 07:37:12;;;;;;;;;;;19.50;75.30;;;;;;5072889;28;19932;-65
2022/06/04 07:39:38;;;;;;;;;;;19.50;75.30;;;;;;5076660;28;19998;-68
2022/06/04 07:42:06;;;;;;;;;;;19.50;75.50;;;;;;5069389;28;19928;-68
2022/06/04 07:44:33;;;;;;;;;;;19.50;75.50;;;;;;5071038;28;19936;-69
2022/06/04 07:47:00;;;;;;;;;;;19.50;75.20;;;;;;5066453;28;19928;-69
2022/06/04 07:49:26;;;;;;;;;;;19.50;74.90;;;;;;5075271;28;20585;-68
2022/06/04 07:51:54;;;;;;;;;;;19.60;75.30;;;;;;5069019;28;19928;-69
2022/06/04 07:54:21;;;;;;;;;;;19.60;75.30;;;;;;5076140;28;19939;-67
2022/06/04 07:56:47;;;;;;;;;;;19.60;75.20;;;;;;5075771;28;19935;-73
2022/06/04 07:59:16;;;;;;;;;;;19.60;75.50;;;;;;5075238;28;19943;-72
2022/06/04 08:01:43;;;;;;;;;;;19.60;76.00;;;;;;5070743;28;19987;-70
2022/06/04 08:04:10;;;;;;;;;;;19.60;76.20;;;;;;5074555;28;19981;-67
2022/06/04 08:06:37;;;;;;;;;;;19.60;75.80;;;;;;5071935;28;19928;-67
2022/06/04 08:09:03;;;;;;;;;;;19.60;75.30;;;;;;5072977;28;20019;-68
2022/06/04 08:11:33;;;;;;;;;;;19.60;75.10;;;;;;5069806;28;19932;-71
2022/06/04 08:14:03;;;;;;;;;;;19.70;75.00;;;;;;5073020;28;19927;-69
2022/06/04 08:16:31;;;;;;;;;;;19.70;74.70;;;;;;5067008;28;19939;-69
2022/06/04 08:18:58;;;;;;;;;;;19.70;74.50;;;;;;5070284;28;19932;-69
2022/06/04 08:21:25;;;;;;;;;;;19.70;74.40;;;;;;5071320;28;19925;-67
2022/06/04 08:23:52;;;;;;;;;;;19.70;74.30;;;;;;5077746;28;19932;-68
2022/06/04 08:26:18;;;;;;;;;;;19.70;74.20;;;;;;5071636;28;19946;-73
2022/06/04 08:28:45;;;;;;;;;;;19.70;74.10;;;;;;5071715;28;19987;-68
2022/06/04 08:31:12;;;;;;;;;;;19.70;74.00;;;;;;5069738;28;19928;-69
2022/06/04 08:33:40;;;;;;;;;;;19.70;74.20;;;;;;5070948;28;19928;-65
2022/06/04 08:36:08;;;;;;;;;;;19.70;74.70;;;;;;5076972;28;19932;-68
2022/06/04 08:38:35;;;;;;;;;;;19.70;75.00;;;;;;5074638;28;19928;-68
2022/06/04 08:41:03;;;;;;;;;;;19.70;75.50;;;;;;5070882;28;19938;-70
2022/06/04 08:43:33;;;;;;;;;;;19.80;75.20;;;;;;5065384;28;20273;-69
2022/06/04 08:46:01;;;;;;;;;;;19.80;75.20;;;;;;5072869;28;19932;-70
2022/06/04 08:48:30;;;;;;;;;;;19.80;75.50;;;;;;5074670;28;19932;-70
2022/06/04 08:50:58;;;;;;;;;;;19.80;75.70;;;;;;5066832;28;19936;-71
2022/06/04 08:53:27;;;;;;;;;;;19.80;75.50;;;;;;5066733;28;19935;-69
2022/06/04 08:58:54;;;;;;;;;;;19.80;75.40;;;;;;5074366;28;19927;-69
2022/06/04 09:01:24;;;;;;;;;;;19.80;75.50;;;;;;5070553;28;19935;-70
2022/06/04 09:03:55;;;;;;;;;;;19.80;75.40;;;;;;5070154;28;20293;-68
2022/06/04 09:06:30;;;;;;;;;;;19.80;75.40;;;;;;5070317;28;20666;-71
2022/06/04 09:08:59;;;;;;;;;;;19.80;74.90;;;;;;5072482;28;19932;-72
2022/06/04 09:11:28;;;;;;;;;;;19.80;75.70;;;;;;5075938;28;19932;-73
2022/06/04 09:14:13;;;;;;;;;;;19.80;76.20;;;;;;5069657;28;19934;-71
2022/06/04 09:16:41;;;;;;;;;;;19.90;76.10;;;;;;5053621;28;20316;-66
2022/06/04 09:19:13;;;;;;;;;;;19.90;75.80;;;;;;5073230;28;19989;-69
2022/06/04 09:21:41;;;;;;;;;;;19.90;76.30;;;;;;5068408;28;19936;-67
2022/06/04 09:24:08;;;;;;;;;;;19.90;76.70;;;;;;5071296;28;19932;-66
2022/06/04 09:26:40;;;;;;;;;;;19.90;77.00;;;;;;5070574;28;19934;-67
2022/06/04 09:29:14;;;;;;;;;;;19.90;77.40;;;;;;5073590;28;20043;-67
2022/06/04 09:31:44;;;;;;;;;;;19.90;77.50;;;;;;5074210;28;19928;-67
2022/06/04 09:34:14;;;;;;;;;;;20.00;77.40;;;;;;5079346;28;19932;-67
2022/06/04 09:36:45;;;;;;;;;;;20.00;77.20;;;;;;5072988;28;19944;-69
2022/06/04 09:39:20;;;;;;;;;;;20.00;77.20;;;;;;5075096;28;19932;-69
2022/06/04 09:41:50;;;;;;;;;;;20.00;77.40;;;;;;5071815;28;19939;-66
2022/06/04 09:44:17;;;;;;;;;;;20.00;77.30;;;;;;5074416;28;20300;-69
2022/06/04 09:46:45;;;;;;;;;;;20.00;77.40;;;;;;5068090;28;19931;-71
2022/06/04 09:49:21;;;;;;;;;;;20.00;77.50;;;;;;5076230;28;19954;-66
2022/06/04 09:51:49;;;;;;;;;;;20.00;77.30;;;;;;5069822;28;19974;-72
2022/06/04 09:54:24;;;;;;;;;;;20.10;77.30;;;;;;5074667;28;19997;-70
2022/06/04 09:56:53;;;;;;;;;;;20.00;77.20;;;;;;5072183;28;20785;-70
2022/06/04 09:59:21;;;;;;;;;;;20.10;76.80;;;;;;5073804;28;20003;-69
2022/06/04 10:01:55;;;;;;;;;;;20.10;77.00;;;;;;5076215;28;20402;-68
2022/06/04 10:04:23;;;;;;;;;;;20.10;77.40;;;;;;5076781;28;19955;-69
2022/06/04 10:06:51;;;;;;;;;;;20.10;77.80;;;;;;5072236;28;19940;-67
2022/06/04 10:12:05;;;;;;;;;;;20.20;77.50;;;;;;5074452;28;19931;-69
2022/06/04 10:14:31;;;;;;;;;;;20.20;77.30;;;;;;5073272;28;19937;-70
2022/06/04 10:16:58;;;;;;;;;;;20.10;77.20;;;;;;5071823;28;19931;-71
2022/06/04 10:19:25;;;;;;;;;;;20.20;77.20;;;;;;5071043;28;20323;-69
2022/06/04 10:22:05;;;;;;;;;;;20.20;77.10;;;;;;5075832;28;19932;-70
2022/06/04 10:24:36;;;;;;;;;;;20.20;77.20;;;;;;5069636;28;20011;-70
2022/06/04 10:27:05;;;;;;;;;;;20.20;77.00;;;;;;5073665;28;20355;-70
2022/06/04 10:29:47;;;;;;;;;;;20.20;77.00;;;;;;5075017;28;19928;-67
2022/06/04 10:32:21;;;;;;;;;;;20.20;77.00;;;;;;5067868;28;19928;-69
2022/06/04 10:34:51;;;;;;;;;;;20.20;77.10;;;;;;5070413;28;19933;-70
2022/06/04 10:37:27;;;;;;;;;;;20.20;77.40;;;;;;5076601;28;19932;-68
2022/06/04 10:39:58;;;;;;;;;;;20.30;77.50;;;;;;5074730;28;19935;-72
2022/06/04 10:42:29;;;;;;;;;;;20.20;77.30;;;;;;5071770;28;19943;-69
2022/06/04 10:45:03;;;;;;;;;;;20.30;77.40;;;;;;5071585;28;19928;-69
2022/06/04 10:47:34;;;;;;;;;;;20.30;77.20;;;;;;5076030;28;19963;-70
2022/06/04 10:50:06;;;;;;;;;;;20.30;77.10;;;;;;5074400;28;19936;-70
2022/06/04 10:52:39;;;;;;;;;;;20.30;77.00;;;;;;5071428;28;19932;-70
2022/06/04 10:55:11;;;;;;;;;;;20.40;76.90;;;;;;5070565;28;20345;-70
2022/06/04 10:57:43;;;;;;;;;;;20.40;76.90;;;;;;5073678;28;19982;-68
2022/06/04 11:00:12;;;;;;;;;;;20.40;76.80;;;;;;5075734;28;19928;-67
2022/06/04 11:02:42;;;;;;;;;;;20.40;76.60;;;;;;5072071;28;19928;-69
2022/06/04 11:05:13;;;;;;;;;;;20.50;76.60;;;;;;5080263;28;20646;-69
2022/06/04 11:07:52;;;;;;;;;;;20.50;76.60;;;;;;5079119;28;19975;-67
2022/06/04 11:10:22;;;;;;;;;;;20.50;76.50;;;;;;5078821;28;19928;-71
2022/06/04 11:12:51;;;;;;;;;;;20.50;76.50;;;;;;5079529;28;19974;-70
2022/06/04 11:15:20;;;;;;;;;;;20.60;76.50;;;;;;5067031;28;19933;-67
2022/06/04 11:17:48;;;;;;;;;;;20.60;76.40;;;;;;5079646;28;19939;-69
2022/06/04 11:20:18;;;;;;;;;;;20.60;76.30;;;;;;5071808;28;19998;-70
2022/06/04 11:22:50;;;;;;;;;;;20.60;76.20;;;;;;5071761;28;19948;-69
2022/06/04 11:25:24;;;;;;;;;;;20.70;76.10;;;;;;5074259;28;20007;-70
2022/06/04 11:27:53;;;;;;;;;;;20.70;75.90;;;;;;5079111;28;19932;-68
2022/06/04 11:30:26;;;;;;;;;;;20.70;75.80;;;;;;5074289;28;20685;-67
2022/06/04 11:32:56;;;;;;;;;;;20.70;75.70;;;;;;5076487;28;20594;-70
2022/06/04 11:35:35;;;;;;;;;;;20.80;75.50;;;;;;5069946;28;19935;-70
2022/06/04 11:38:08;;;;;;;;;;;20.80;75.40;;;;;;5070922;28;19959;-69
2022/06/04 11:40:37;;;;;;;;;;;20.80;75.50;;;;;;5071875;28;19931;-67
2022/06/04 11:43:09;;;;;;;;;;;20.90;75.50;;;;;;5068720;28;19932;-66
2022/06/04 11:45:50;;;;;;;;;;;20.90;75.40;;;;;;5075185;28;19935;-69
2022/06/04 11:48:31;;;;;;;;;;;20.90;75.40;;;;;;5068120;28;19936;-69
2022/06/04 11:51:02;;;;;;;;;;;21.00;75.30;;;;;;5073774;28;19951;-70
2022/06/04 11:53:33;;;;;;;;;;;21.00;75.10;;;;;;5076794;28;19935;-68
2022/06/04 11:56:04;;;;;;;;;;;21.00;75.20;;;;;;5070599;28;20010;-69
2022/06/04 11:58:48;;;;;;;;;;;21.10;75.10;;;;;;5075252;28;19974;-71
2022/06/04 12:01:17;;;;;;;;;;;21.10;75.00;;;;;;5064324;28;19928;-72
2022/06/04 12:03:47;;;;;;;;;;;21.20;74.90;;;;;;5069406;28;19938;-68
2022/06/04 12:06:15;;;;;;;;;;;21.20;74.70;;;;;;5070403;28;19940;-71
2022/06/04 12:08:44;;;;;;;;;;;21.20;74.50;;;;;;5071903;28;19928;-70
2022/06/04 12:11:18;;;;;;;;;;;21.30;75.30;;;;;;5066249;28;19936;-67
2022/06/04 12:13:50;;;;;;;;;;;21.30;74.60;;;;;;5070526;28;19928;-71
2022/06/04 12:16:18;;;;;;;;;;;21.30;74.60;;;;;;5070324;28;19928;-67
2022/06/04 12:18:46;;;;;;;;;;;21.40;74.50;;;;;;5068629;28;20017;-69
2022/06/04 12:24:19;;;;;;;;;;;21.40;74.30;;;;;;5067375;28;19931;-69
2022/06/04 12:26:48;;;;;;;;;;;21.50;74.20;;;;;;5068631;28;19944;-69
2022/06/04 12:29:32;;;;;;;;;;;21.50;74.20;;;;;;5067945;28;19932;-69
2022/06/04 12:31:59;;;;;;;;;;;21.60;74.20;;;;;;5071637;28;19983;-69
2022/06/04 12:34:27;;;;;;;;;;;21.60;73.90;;;;;;5068773;28;19928;-67
2022/06/04 12:36:55;;;;;;;;;;;21.70;73.90;;;;;;5068106;28;20002;-71
2022/06/04 12:39:24;;;;;;;;;;;21.70;73.70;;;;;;5071222;28;20030;-70
2022/06/04 12:41:52;;;;;;;;;;;21.80;73.50;;;;;;5069498;28;20438;-69
2022/06/04 12:44:20;;;;;;;;;;;21.90;73.30;;;;;;5074565;28;19932;-69
2022/06/04 12:46:48;;;;;;;;;;;22.00;73.30;;;;;;5072051;28;19932;-68
2022/06/04 12:49:21;;;;;;;;;;;22.10;73.20;;;;;;5072172;28;20227;-67
2022/06/04 12:51:50;;;;;;;;;;;22.10;73.20;;;;;;5069337;28;20660;-66
2022/06/04 12:54:29;;;;;;;;;;;22.30;73.20;;;;;;5074740;28;19974;-70
2022/06/04 12:56:58;;;;;;;;;;;22.30;73.10;;;;;;5067484;28;19932;-69
2022/06/04 12:59:27;;;;;;;;;;;22.30;73.00;;;;;;5076976;28;19931;-70
2022/06/04 13:01:54;;;;;;;;;;;22.40;73.00;;;;;;5074601;28;20393;-73
2022/06/04 13:04:22;;;;;;;;;;;22.50;73.00;;;;;;5074800;28;20594;-71
2022/06/04 13:06:50;;;;;;;;;;;22.50;72.80;;;;;;5074675;28;19932;-70
2022/06/04 13:09:21;;;;;;;;;;;22.70;72.80;;;;;;5069972;28;20407;-69
2022/06/04 13:11:59;;;;;;;;;;;22.70;72.60;;;;;;5072946;28;19932;-69
2022/06/04 13:14:29;;;;;;;;;;;22.80;72.40;;;;;;5072874;28;19928;-69
2022/06/04 13:16:57;;;;;;;;;;;22.90;71.70;;;;;;5072868;28;19928;-71
2022/06/04 13:19:32;;;;;;;;;;;22.90;72.30;;;;;;5075779;28;19935;-71
2022/06/04 13:21:59;;;;;;;;;;;23.00;72.20;;;;;;5075844;28;19932;-71
2022/06/04 13:24:26;;;;;;;;;;;23.10;72.00;;;;;;5078490;28;20342;-67
2022/06/04 13:26:57;;;;;;;;;;;23.10;71.70;;;;;;5076351;28;20464;-68
2022/06/04 13:29:26;;;;;;;;;;;23.20;71.60;;;;;;5071691;28;20396;-71
2022/06/04 13:31:54;;;;;;;;;;;23.30;71.50;;;;;;5079358;28;19936;-68
2022/06/04 13:34:23;;;;;;;;;;;23.40;71.40;;;;;;5071866;28;19928;-70
2022/06/04 13:36:51;;;;;;;;;;;23.40;71.20;;;;;;5074786;28;19936;-70
2022/06/04 13:39:18;;;;;;;;;;;23.50;71.10;;;;;;5079447;28;20422;-67
2022/06/04 13:42:06;;;;;;;;;;;23.50;70.80;;;;;;5077430;28;20659;-70
2022/06/04 13:44:36;;;;;;;;;;;23.60;70.60;;;;;;5075097;28;19939;-69
2022/06/04 13:47:07;;;;;;;;;;;23.60;70.50;;;;;;5074013;28;19928;-69
2022/06/04 13:49:34;;;;;;;;;;;23.70;70.50;;;;;;5072170;28;19963;-67
2022/06/04 13:52:03;;;;;;;;;;;23.80;70.30;;;;;;5089201;28;19934;-71
2022/06/04 13:54:31;;;;;;;;;;;23.90;70.10;;;;;;5078663;28;20027;-71
2022/06/04 13:56:59;;;;;;;;;;;23.90;69.80;;;;;;5075663;28;19936;-68
2022/06/04 13:59:28;;;;;;;;;;;24.00;69.60;;;;;;5074600;28;19935;-69
2022/06/04 14:01:58;;;;;;;;;;;24.00;69.30;;;;;;5072290;28;19935;-70
2022/06/04 14:07:10;;;;;;;;;;;24.20;69.00;;;;;;5072665;28;20614;-68
2022/06/04 14:09:36;;;;;;;;;;;24.30;68.90;;;;;;5072561;28;19929;-68
2022/06/04 14:12:06;;;;;;;;;;;24.30;68.60;;;;;;5074963;28;20375;-70
2022/06/04 14:14:43;;;;;;;;;;;24.40;68.50;;;;;;5070699;28;19943;-69
2022/06/04 14:17:19;;;;;;;;;;;24.50;68.40;;;;;;5073033;28;19951;-70
2022/06/04 14:19:56;;;;;;;;;;;24.50;68.20;;;;;;5069524;28;19932;-65
2022/06/04 14:22:28;;;;;;;;;;;24.70;68.20;;;;;;5069555;28;20328;-69
2022/06/04 14:25:05;;;;;;;;;;;24.70;68.00;;;;;;5072235;28;19967;-68
2022/06/04 14:27:35;;;;;;;;;;;24.70;67.60;;;;;;5073424;28;19928;-70
2022/06/04 14:30:06;;;;;;;;;;;24.90;67.20;;;;;;5074221;28;19928;-71
2022/06/04 14:32:38;;;;;;;;;;;24.90;67.10;;;;;;5077488;28;19989;-70
2022/06/04 14:35:12;;;;;;;;;;;25.00;66.70;;;;;;5067210;28;20015;-68
2022/06/04 14:37:41;;;;;;;;;;;25.00;66.30;;;;;;5076630;28;19932;-68
2022/06/04 14:40:08;;;;;;;;;;;25.10;66.20;;;;;;5075588;28;19943;-68
2022/06/04 14:42:48;;;;;;;;;;;25.20;66.00;;;;;;5071436;28;19936;-67
2022/06/04 14:45:19;;;;;;;;;;;25.20;65.80;;;;;;5068902;28;19946;-69
2022/06/04 14:47:57;;;;;;;;;;;25.30;65.70;;;;;;5080159;28;19932;-68